sensor_id;sensor_type;location;lat;lon;timestamp;pressure;altitude;pressure_sealevel;temperature;humidity
26719;BME280;14326;50.794;6.060;2022-07-29T00:01:03;99548.28;;;19.01;66.97
26719;BME280;14326;50.794;6.060;2022-07-29T00:03:30;99545.72;;;18.96;66.94
26719;BME280;14326;50.794;6.060;2022-07-29T00:05:57;99533.16;;;18.95;66.55
26719;BME280;14326;50.794;6.060;2022-07-29T00:08:25;99531.44;;;18.91;66.59
26719;BME280;14326;50.794;6.060;2022-07-29T00:10:52;99531.59;;;18.85;67.23
26719;BME280;14326;50.794;6.060;2022-07-29T00:13:18;99529.00;;;18.82;67.81
26719;BME280;14326;50.794;6.060;2022-07-29T00:15:45;99532.72;;;18.78;68.64
26719;BME280;14326;50.794;6.060;2022-07-29T00:18:12;99536.38;;;18.74;69.17
26719;BME280;14326;50.794;6.060;2022-07-29T00:20:38;99532.00;;;18.70;69.52
26719;BME280;14326;50.794;6.060;2022-07-29T00:23:05;99528.56;;;18.63;70.23
26719;BME280;14326;50.794;6.060;2022-07-29T00:25:33;99514.38;;;18.57;69.89
26719;BME280;14326;50.794;6.060;2022-07-29T00:28:00;99517.25;;;18.49;70.37
26719;BME280;14326;50.794;6.060;2022-07-29T00:30:27;99510.22;;;18.42;70.98
26719;BME280;14326;50.794;6.060;2022-07-29T00:32:53;99517.59;;;18.34;71.44
26719;BME280;14326;50.794;6.060;2022-07-29T00:35:20;99524.88;;;18.30;71.42
26719;BME280;14326;50.794;6.060;2022-07-29T00:38:04;99525.94;;;18.23;72.03
26719;BME280;14326;50.794;6.060;2022-07-29T00:40:32;99514.25;;;18.23;71.34
26719;BME280;14326;50.794;6.060;2022-07-29T00:42:59;99514.25;;;18.23;71.94
26719;BME280;14326;50.794;6.060;2022-07-29T00:45:27;99517.88;;;18.22;72.34
26719;BME280;14326;50.794;6.060;2022-07-29T00:47:55;99523.25;;;18.22;72.26
26719;BME280;14326;50.794;6.060;2022-07-29T00:50:22;99526.88;;;18.21;71.76
26719;BME280;14326;50.794;6.060;2022-07-29T00:52:50;99526.66;;;18.30;71.27
26719;BME280;14326;50.794;6.060;2022-07-29T00:55:18;99525.63;;;18.35;70.27
26719;BME280;14326;50.794;6.060;2022-07-29T00:57:46;99537.22;;;18.39;66.72
26719;BME280;14326;50.794;6.060;2022-07-29T01:00:15;99524.63;;;18.39;65.20
26719;BME280;14326;50.794;6.060;2022-07-29T01:02:42;99523.66;;;18.44;65.20
26719;BME280;14326;50.794;6.060;2022-07-29T01:05:11;99519.13;;;18.44;66.11
26719;BME280;14326;50.794;6.060;2022-07-29T01:07:39;99521.88;;;18.42;65.43
26719;BME280;14326;50.794;6.060;2022-07-29T01:10:07;99509.19;;;18.48;64.26
26719;BME280;14326;50.794;6.060;2022-07-29T01:12:37;99501.84;;;18.54;63.60
26719;BME280;14326;50.794;6.060;2022-07-29T01:15:07;99505.44;;;18.53;63.68
26719;BME280;14326;50.794;6.060;2022-07-29T01:17:40;99508.16;;;18.53;63.84
26719;BME280;14326;50.794;6.060;2022-07-29T01:20:13;99503.66;;;18.54;64.33
26719;BME280;14326;50.794;6.060;2022-07-29T01:23:01;99509.97;;;18.51;64.73
26719;BME280;14326;50.794;6.060;2022-07-29T01:26:06;99508.19;;;18.50;64.71
26719;BME280;14326;50.794;6.060;2022-07-29T01:28:54;99513.81;;;18.42;65.23
26719;BME280;14326;50.794;6.060;2022-07-29T01:31:31;99512.06;;;18.40;65.72
26719;BME280;14326;50.794;6.060;2022-07-29T01:34:02;99511.19;;;18.38;65.68
26719;BME280;14326;50.794;6.060;2022-07-29T01:36:33;99507.78;;;18.31;66.17
26719;BME280;14326;50.794;6.060;2022-07-29T01:39:06;99505.09;;;18.31;66.22
26719;BME280;14326;50.794;6.060;2022-07-29T01:41:37;99509.69;;;18.26;66.96
26719;BME280;14326;50.794;6.060;2022-07-29T01:44:10;99500.94;;;18.17;67.25
26719;BME280;14326;50.794;6.060;2022-07-29T01:46:40;99507.22;;;18.17;67.78
26719;BME280;14326;50.794;6.060;2022-07-29T01:49:11;99506.34;;;18.17;68.08
26719;BME280;14326;50.794;6.060;2022-07-29T01:51:45;99499.94;;;18.21;67.52
26719;BME280;14326;50.794;6.060;2022-07-29T01:54:18;99508.84;;;18.24;67.22
26719;BME280;14326;50.794;6.060;2022-07-29T01:56:48;99508.00;;;18.22;66.99
26719;BME280;14326;50.794;6.060;2022-07-29T01:59:18;99515.28;;;18.19;67.34
26719;BME280;14326;50.794;6.060;2022-07-29T02:01:46;99505.47;;;18.15;67.64
26719;BME280;14326;50.794;6.060;2022-07-29T02:04:15;99506.47;;;18.11;67.47
26719;BME280;14326;50.794;6.060;2022-07-29T02:06:44;99501.13;;;18.09;67.78
26719;BME280;14326;50.794;6.060;2022-07-29T02:09:13;99503.88;;;18.08;67.76
26719;BME280;14326;50.794;6.060;2022-07-29T02:11:45;99506.63;;;18.05;68.08
26719;BME280;14326;50.794;6.060;2022-07-29T02:14:14;99501.13;;;18.09;67.46
26719;BME280;14326;50.794;6.060;2022-07-29T02:16:44;99501.13;;;18.09;67.68
26719;BME280;14326;50.794;6.060;2022-07-29T02:19:12;99499.28;;;18.11;67.44
26719;BME280;14326;50.794;6.060;2022-07-29T02:21:41;99504.53;;;18.17;66.87
26719;BME280;14326;50.794;6.060;2022-07-29T02:24:11;99505.41;;;18.18;67.36
26719;BME280;14326;50.794;6.060;2022-07-29T02:26:39;99505.31;;;18.21;66.93
26719;BME280;14326;50.794;6.060;2022-07-29T02:29:08;99492.81;;;18.20;67.40
26719;BME280;14326;50.794;6.060;2022-07-29T02:31:36;99505.41;;;18.18;67.04
26719;BME280;14326;50.794;6.060;2022-07-29T02:34:07;99507.31;;;18.14;67.84
26719;BME280;14326;50.794;6.060;2022-07-29T02:36:34;99510.84;;;18.15;67.80
26719;BME280;14326;50.794;6.060;2022-07-29T02:39:02;99513.50;;;18.18;69.68
26719;BME280;14326;50.794;6.060;2022-07-29T02:41:37;99520.59;;;18.20;68.36
26719;BME280;14326;50.794;6.060;2022-07-29T02:44:15;99522.38;;;18.21;67.61
26719;BME280;14326;50.794;6.060;2022-07-29T02:46:46;99523.50;;;18.13;67.96
26719;BME280;14326;50.794;6.060;2022-07-29T02:49:21;99523.41;;;18.16;68.34
26719;BME280;14326;50.794;6.060;2022-07-29T02:51:54;99524.31;;;18.15;69.23
26719;BME280;14326;50.794;6.060;2022-07-29T02:54:26;99520.69;;;18.17;68.91
26719;BME280;14326;50.794;6.060;2022-07-29T02:56:56;99527.81;;;18.20;68.99
26719;BME280;14326;50.794;6.060;2022-07-29T02:59:26;99528.78;;;18.16;69.34
26719;BME280;14326;50.794;6.060;2022-07-29T03:01:55;99524.25;;;18.18;69.07
26719;BME280;14326;50.794;6.060;2022-07-29T03:04:27;99528.00;;;18.11;70.18
26719;BME280;14326;50.794;6.060;2022-07-29T03:06:58;99527.34;;;18.01;71.09
26719;BME280;14326;50.794;6.060;2022-07-29T03:09:25;99535.59;;;17.92;70.67
26719;BME280;14326;50.794;6.060;2022-07-29T03:11:53;99528.50;;;17.89;70.53
26719;BME280;14326;50.794;6.060;2022-07-29T03:14:20;99532.09;;;17.88;72.10
26719;BME280;14326;50.794;6.060;2022-07-29T03:16:48;99527.59;;;17.90;71.75
26719;BME280;14326;50.794;6.060;2022-07-29T03:19:16;99530.16;;;17.95;71.29
26719;BME280;14326;50.794;6.060;2022-07-29T03:21:44;99530.19;;;17.93;70.65
26719;BME280;14326;50.794;6.060;2022-07-29T03:24:24;99530.31;;;17.87;71.34
26719;BME280;14326;50.794;6.060;2022-07-29T03:26:51;99526.72;;;17.88;71.22
26719;BME280;14326;50.794;6.060;2022-07-29T03:29:17;99537.63;;;17.82;71.28
26719;BME280;14326;50.794;6.060;2022-07-29T03:31:44;99532.34;;;17.78;72.15
26719;BME280;14326;50.794;6.060;2022-07-29T03:34:10;99533.22;;;17.78;71.57
26719;BME280;14326;50.794;6.060;2022-07-29T03:36:37;99528.75;;;17.79;71.71
26719;BME280;14326;50.794;6.060;2022-07-29T03:39:05;99529.56;;;17.81;71.29
26719;BME280;14326;50.794;6.060;2022-07-29T03:41:35;99524.28;;;17.76;71.67
26719;BME280;14326;50.794;6.060;2022-07-29T03:44:04;99521.88;;;17.64;72.54
26719;BME280;14326;50.794;6.060;2022-07-29T03:46:33;99528.22;;;17.60;72.70
26719;BME280;14326;50.794;6.060;2022-07-29T03:49:03;99531.72;;;17.65;72.29
26719;BME280;14326;50.794;6.060;2022-07-29T03:51:30;99528.06;;;17.68;72.19
26719;BME280;14326;50.794;6.060;2022-07-29T03:53:57;99526.31;;;17.67;72.72
26719;BME280;14326;50.794;6.060;2022-07-29T03:56:27;99532.78;;;17.55;73.64
26719;BME280;14326;50.794;6.060;2022-07-29T03:58:55;99529.22;;;17.54;75.33
26719;BME280;14326;50.794;6.060;2022-07-29T04:01:22;99538.19;;;17.53;75.49
26719;BME280;14326;50.794;6.060;2022-07-29T04:03:50;99537.22;;;17.56;75.46
26719;BME280;14326;50.794;6.060;2022-07-29T04:06:16;99538.19;;;17.53;76.23
26719;BME280;14326;50.794;6.060;2022-07-29T04:08:43;99539.09;;;17.54;76.23
26719;BME280;14326;50.794;6.060;2022-07-29T04:11:10;99540.88;;;17.53;76.15
26719;BME280;14326;50.794;6.060;2022-07-29T04:13:38;99535.59;;;17.49;75.96
26719;BME280;14326;50.794;6.060;2022-07-29T04:16:04;99541.91;;;17.48;76.69
26719;BME280;14326;50.794;6.060;2022-07-29T04:18:31;99542.78;;;17.48;76.93
26719;BME280;14326;50.794;6.060;2022-07-29T04:20:58;99544.56;;;17.49;76.72
26719;BME280;14326;50.794;6.060;2022-07-29T04:23:26;99549.84;;;17.54;77.33
26719;BME280;14326;50.794;6.060;2022-07-29T04:25:52;99550.63;;;17.59;75.75
26719;BME280;14326;50.794;6.060;2022-07-29T04:28:19;99548.84;;;17.61;75.40
26719;BME280;14326;50.794;6.060;2022-07-29T04:30:47;99547.75;;;17.70;74.61
26719;BME280;14326;50.794;6.060;2022-07-29T04:33:13;99549.75;;;17.58;76.79
26719;BME280;14326;50.794;6.060;2022-07-29T04:35:40;99542.66;;;17.54;76.31
26719;BME280;14326;50.794;6.060;2022-07-29T04:38:07;99540.91;;;17.52;77.87
26719;BME280;14326;50.794;6.060;2022-07-29T04:40:33;99533.75;;;17.51;76.69
26719;BME280;14326;50.794;6.060;2022-07-29T04:43:00;99543.56;;;17.53;77.36
26719;BME280;14326;50.794;6.060;2022-07-29T04:45:27;99539.13;;;17.51;77.49
26719;BME280;14326;50.794;6.060;2022-07-29T04:47:55;99541.81;;;17.51;77.14
26719;BME280;14326;50.794;6.060;2022-07-29T04:50:22;99535.56;;;17.50;77.33
26719;BME280;14326;50.794;6.060;2022-07-29T04:52:49;99540.03;;;17.50;77.83
26719;BME280;14326;50.794;6.060;2022-07-29T04:55:16;99546.16;;;17.58;78.27
26719;BME280;14326;50.794;6.060;2022-07-29T04:57:43;99564.00;;;17.65;76.86
26719;BME280;14326;50.794;6.060;2022-07-29T05:00:10;99560.38;;;17.66;78.12
26719;BME280;14326;50.794;6.060;2022-07-29T05:02:37;99562.19;;;17.66;77.42
26719;BME280;14326;50.794;6.060;2022-07-29T05:05:05;99553.31;;;17.59;78.20
26719;BME280;14326;50.794;6.060;2022-07-29T05:07:32;99551.56;;;17.56;78.62
26719;BME280;14326;50.794;6.060;2022-07-29T05:09:59;99550.66;;;17.57;76.75
26719;BME280;14326;50.794;6.060;2022-07-29T05:12:26;99550.66;;;17.57;78.54
26719;BME280;14326;50.794;6.060;2022-07-29T05:14:52;99542.59;;;17.56;78.11
26719;BME280;14326;50.794;6.060;2022-07-29T05:17:19;99542.69;;;17.53;77.85
26719;BME280;14326;50.794;6.060;2022-07-29T05:19:46;99552.56;;;17.51;79.54
26719;BME280;14326;50.794;6.060;2022-07-29T05:22:14;99543.63;;;17.50;78.58
26719;BME280;14326;50.794;6.060;2022-07-29T05:24:40;99541.00;;;17.49;78.97
26719;BME280;14326;50.794;6.060;2022-07-29T05:27:07;99547.19;;;17.51;78.83
26719;BME280;14326;50.794;6.060;2022-07-29T05:29:34;99549.97;;;17.48;77.28
26719;BME280;14326;50.794;6.060;2022-07-29T05:32:02;99549.88;;;17.51;77.40
26719;BME280;14326;50.794;6.060;2022-07-29T05:34:29;99547.19;;;17.52;78.13
26719;BME280;14326;50.794;6.060;2022-07-29T05:36:56;99541.72;;;17.55;77.57
26719;BME280;14326;50.794;6.060;2022-07-29T05:39:24;99541.81;;;17.51;77.00
26719;BME280;14326;50.794;6.060;2022-07-29T05:41:50;99552.63;;;17.49;76.83
26719;BME280;14326;50.794;6.060;2022-07-29T05:44:17;99543.69;;;17.47;77.02
26719;BME280;14326;50.794;6.060;2022-07-29T05:46:44;99554.34;;;17.52;76.33
26719;BME280;14326;50.794;6.060;2022-07-29T05:49:10;99543.69;;;17.49;74.98
26719;BME280;14326;50.794;6.060;2022-07-29T05:51:37;99550.81;;;17.50;73.86
26719;BME280;14326;50.794;6.060;2022-07-29T05:54:04;99548.09;;;17.50;72.35
26719;BME280;14326;50.794;6.060;2022-07-29T05:56:32;99557.00;;;17.55;73.06
26719;BME280;14326;50.794;6.060;2022-07-29T05:58:59;99563.22;;;17.60;73.20
26719;BME280;14326;50.794;6.060;2022-07-29T06:01:25;99559.59;;;17.59;73.87
26719;BME280;14326;50.794;6.060;2022-07-29T06:03:52;99555.13;;;17.58;73.45
26719;BME280;14326;50.794;6.060;2022-07-29T06:06:19;99558.69;;;17.59;73.81
26719;BME280;14326;50.794;6.060;2022-07-29T06:08:45;99554.16;;;17.63;73.94
26719;BME280;14326;50.794;6.060;2022-07-29T06:11:12;99560.38;;;17.66;73.81
26719;BME280;14326;50.794;6.060;2022-07-29T06:13:40;99557.63;;;17.69;75.53
26719;BME280;14326;50.794;6.060;2022-07-29T06:16:06;99567.50;;;17.69;72.36
26719;BME280;14326;50.794;6.060;2022-07-29T06:18:33;99570.22;;;17.67;73.10
26719;BME280;14326;50.794;6.060;2022-07-29T06:21:00;99565.78;;;17.66;72.74
26719;BME280;14326;50.794;6.060;2022-07-29T06:23:26;99556.91;;;17.61;73.65
26719;BME280;14326;50.794;6.060;2022-07-29T06:25:53;99567.47;;;17.70;74.28
26719;BME280;14326;50.794;6.060;2022-07-29T06:28:20;99561.19;;;17.71;73.57
26719;BME280;14326;50.794;6.060;2022-07-29T06:30:48;99562.88;;;17.75;73.84
26719;BME280;14326;50.794;6.060;2022-07-29T06:33:18;99556.63;;;17.73;74.32
26719;BME280;14326;50.794;6.060;2022-07-29T06:35:45;99558.47;;;17.73;74.47
26719;BME280;14326;50.794;6.060;2022-07-29T06:38:12;99553.13;;;17.70;74.23
26719;BME280;14326;50.794;6.060;2022-07-29T06:40:41;99549.56;;;17.69;74.90
26719;BME280;14326;50.794;6.060;2022-07-29T06:43:25;99555.94;;;17.65;74.94
26719;BME280;14326;50.794;6.060;2022-07-29T06:45:53;99557.84;;;17.55;74.25
26719;BME280;14326;50.794;6.060;2022-07-29T06:48:20;99571.41;;;17.51;75.15
26719;BME280;14326;50.794;6.060;2022-07-29T06:50:46;99571.28;;;17.57;75.81
26719;BME280;14326;50.794;6.060;2022-07-29T06:53:13;99562.09;;;17.70;76.50
26719;BME280;14326;50.794;6.060;2022-07-29T06:55:39;99571.47;;;17.92;77.86
26719;BME280;14326;50.794;6.060;2022-07-29T06:58:07;99576.44;;;18.12;74.20
26719;BME280;14326;50.794;6.060;2022-07-29T07:00:34;99574.78;;;18.45;73.52
26719;BME280;14326;50.794;6.060;2022-07-29T07:03:02;99567.16;;;18.65;71.01
26719;BME280;14326;50.794;6.060;2022-07-29T07:05:29;99576.59;;;18.83;72.34
26719;BME280;14326;50.794;6.060;2022-07-29T07:07:56;99581.84;;;19.23;71.29
26719;BME280;14326;50.794;6.060;2022-07-29T07:10:23;99578.66;;;19.41;68.95
26719;BME280;14326;50.794;6.060;2022-07-29T07:12:49;99592.44;;;19.65;68.76
26719;BME280;14326;50.794;6.060;2022-07-29T07:15:16;99587.06;;;19.94;66.65
26719;BME280;14326;50.794;6.060;2022-07-29T07:17:47;99600.38;;;20.01;66.40
26719;BME280;14326;50.794;6.060;2022-07-29T07:20:15;99600.00;;;20.14;65.26
26719;BME280;14326;50.794;6.060;2022-07-29T07:22:42;99601.53;;;20.22;63.25
26719;BME280;14326;50.794;6.060;2022-07-29T07:25:09;99608.41;;;20.34;63.18
26719;BME280;14326;50.794;6.060;2022-07-29T07:27:36;99607.06;;;20.49;63.02
26719;BME280;14326;50.794;6.060;2022-07-29T07:30:04;99611.50;;;20.79;62.02
26719;BME280;14326;50.794;6.060;2022-07-29T07:32:31;99604.97;;;21.12;60.90
26719;BME280;14326;50.794;6.060;2022-07-29T07:34:58;99606.41;;;20.68;60.24
26719;BME280;14326;50.794;6.060;2022-07-29T07:37:26;99610.53;;;20.80;60.43
26719;BME280;14326;50.794;6.060;2022-07-29T07:39:54;99601.84;;;21.26;61.71
26719;BME280;14326;50.794;6.060;2022-07-29T07:42:20;99588.81;;;21.37;59.34
26719;BME280;14326;50.794;6.060;2022-07-29T07:44:47;99593.84;;;21.48;58.55
26719;BME280;14326;50.794;6.060;2022-07-29T07:47:14;99597.41;;;21.23;59.67
26719;BME280;14326;50.794;6.060;2022-07-29T07:49:45;99594.91;;;20.90;60.40
26719;BME280;14326;50.794;6.060;2022-07-29T07:52:11;99602.78;;;20.41;62.99
26719;BME280;14326;50.794;6.060;2022-07-29T07:54:39;99604.19;;;20.24;63.72
26719;BME280;14326;50.794;6.060;2022-07-29T07:57:06;99603.41;;;20.20;64.01
26719;BME280;14326;50.794;6.060;2022-07-29T07:59:33;99605.22;;;20.20;64.39
26719;BME280;14326;50.794;6.060;2022-07-29T08:01:59;99611.56;;;20.19;64.80
26719;BME280;14326;50.794;6.060;2022-07-29T08:04:26;99606.16;;;20.19;65.70
26719;BME280;14326;50.794;6.060;2022-07-29T08:06:53;99613.38;;;20.18;65.70
26719;BME280;14326;50.794;6.060;2022-07-29T08:09:20;99618.59;;;20.24;65.91
26719;BME280;14326;50.794;6.060;2022-07-29T08:11:48;99616.94;;;20.19;68.07
26719;BME280;14326;50.794;6.060;2022-07-29T08:14:15;99614.97;;;20.25;66.22
26719;BME280;14326;50.794;6.060;2022-07-29T08:16:41;99617.72;;;20.22;66.28
26719;BME280;14326;50.794;6.060;2022-07-29T08:19:08;99618.09;;;20.10;67.29
26719;BME280;14326;50.794;6.060;2022-07-29T08:21:35;99620.75;;;20.12;67.99
26719;BME280;14326;50.794;6.060;2022-07-29T08:24:03;99622.56;;;20.11;67.83
26719;BME280;14326;50.794;6.060;2022-07-29T08:26:48;99618.91;;;20.14;66.88
26719;BME280;14326;50.794;6.060;2022-07-29T08:29:15;99622.16;;;19.95;68.00
26719;BME280;14326;50.794;6.060;2022-07-29T08:31:41;99621.44;;;19.89;67.18
26719;BME280;14326;50.794;6.060;2022-07-29T08:34:09;99617.69;;;19.93;67.31
26719;BME280;14326;50.794;6.060;2022-07-29T08:36:36;99625.78;;;19.94;67.24
26719;BME280;14326;50.794;6.060;2022-07-29T08:39:03;99621.03;;;20.02;66.66
26719;BME280;14326;50.794;6.060;2022-07-29T08:41:30;99623.75;;;20.02;66.50
26719;BME280;14326;50.794;6.060;2022-07-29T08:43:58;99631.03;;;19.99;66.41
26719;BME280;14326;50.794;6.060;2022-07-29T08:46:25;99631.03;;;19.99;66.91
26719;BME280;14326;50.794;6.060;2022-07-29T08:48:51;99630.88;;;20.03;67.87
26719;BME280;14326;50.794;6.060;2022-07-29T08:51:19;99635.75;;;20.22;66.41
26719;BME280;14326;50.794;6.060;2022-07-29T08:53:47;99627.31;;;20.34;66.03
26719;BME280;14326;50.794;6.060;2022-07-29T08:56:16;99635.00;;;20.48;66.24
26719;BME280;14326;50.794;6.060;2022-07-29T08:58:43;99636.66;;;20.81;65.77
26719;BME280;14326;50.794;6.060;2022-07-29T09:01:14;99623.41;;;21.28;65.18
26719;BME280;14326;50.794;6.060;2022-07-29T09:03:44;99616.38;;;21.73;62.82
26719;BME280;14326;50.794;6.060;2022-07-29T09:06:13;99627.38;;;22.18;59.92
26719;BME280;14326;50.794;6.060;2022-07-29T09:08:40;99625.81;;;22.58;57.25
26719;BME280;14326;50.794;6.060;2022-07-29T09:11:07;99627.28;;;22.66;56.80
26719;BME280;14326;50.794;6.060;2022-07-29T09:13:33;99637.19;;;22.91;55.63
26719;BME280;14326;50.794;6.060;2022-07-29T09:16:00;99629.59;;;22.99;53.98
26719;BME280;14326;50.794;6.060;2022-07-29T09:18:35;99632.31;;;22.99;53.71
26719;BME280;14326;50.794;6.060;2022-07-29T09:21:03;99631.66;;;22.70;54.32
26719;BME280;14326;50.794;6.060;2022-07-29T09:24:01;99620.00;;;22.45;53.01
26719;BME280;14326;50.794;6.060;2022-07-29T09:26:29;99623.06;;;22.13;54.92
26719;BME280;14326;50.794;6.060;2022-07-29T09:28:56;99625.59;;;22.17;57.13
26719;BME280;14326;50.794;6.060;2022-07-29T09:31:32;99635.03;;;22.54;54.06
26719;BME280;14326;50.794;6.060;2022-07-29T09:34:02;99630.75;;;22.70;54.13
26719;BME280;14326;50.794;6.060;2022-07-29T09:36:28;99633.22;;;22.99;54.14
26719;BME280;14326;50.794;6.060;2022-07-29T09:38:59;99627.91;;;23.18;53.38
26719;BME280;14326;50.794;6.060;2022-07-29T09:41:26;99631.03;;;23.29;52.38
26719;BME280;14326;50.794;6.060;2022-07-29T09:43:54;99639.94;;;23.54;53.85
26719;BME280;14326;50.794;6.060;2022-07-29T09:46:21;99640.03;;;23.73;52.02
26719;BME280;14326;50.794;6.060;2022-07-29T09:49:07;99635.03;;;23.62;51.74
26719;BME280;14326;50.794;6.060;2022-07-29T09:51:34;99633.16;;;23.64;52.05
26719;BME280;14326;50.794;6.060;2022-07-29T09:54:01;99642.88;;;23.70;50.95
26719;BME280;14326;50.794;6.060;2022-07-29T09:56:39;99644.63;;;23.71;50.72
26719;BME280;14326;50.794;6.060;2022-07-29T09:59:07;99649.81;;;23.77;51.04
26719;BME280;14326;50.794;6.060;2022-07-29T10:01:34;99658.31;;;23.90;50.25
26719;BME280;14326;50.794;6.060;2022-07-29T10:04:02;99650.00;;;23.93;49.59
26719;BME280;14326;50.794;6.060;2022-07-29T10:06:30;99652.78;;;24.12;48.92
26719;BME280;14326;50.794;6.060;2022-07-29T10:09:07;99652.31;;;24.22;50.21
26719;BME280;14326;50.794;6.060;2022-07-29T10:11:34;99656.13;;;24.18;49.01
26719;BME280;14326;50.794;6.060;2022-07-29T10:14:02;99651.75;;;24.34;48.76
26719;BME280;14326;50.794;6.060;2022-07-29T10:16:30;99645.53;;;24.70;49.46
26719;BME280;14326;50.794;6.060;2022-07-29T10:18:59;99644.88;;;25.02;49.06
26719;BME280;14326;50.794;6.060;2022-07-29T10:21:26;99637.38;;;25.07;49.06
26719;BME280;14326;50.794;6.060;2022-07-29T10:23:54;99641.03;;;25.06;50.02
26719;BME280;14326;50.794;6.060;2022-07-29T10:26:23;99647.38;;;25.07;49.57
26719;BME280;14326;50.794;6.060;2022-07-29T10:28:50;99638.97;;;25.11;49.95
26719;BME280;14326;50.794;6.060;2022-07-29T10:31:24;99638.06;;;25.29;49.67
26719;BME280;14326;50.794;6.060;2022-07-29T10:34:02;99639.97;;;25.27;50.11
26719;BME280;14326;50.794;6.060;2022-07-29T10:36:44;99629.75;;;25.33;50.47
26719;BME280;14326;50.794;6.060;2022-07-29T10:39:27;99643.69;;;25.44;50.41
26719;BME280;14326;50.794;6.060;2022-07-29T10:42:15;99637.13;;;25.48;49.09
26719;BME280;14326;50.794;6.060;2022-07-29T10:44:44;99636.94;;;25.34;49.85
26719;BME280;14326;50.794;6.060;2022-07-29T10:47:20;99635.41;;;25.28;51.50
26719;BME280;14326;50.794;6.060;2022-07-29T10:49:55;99643.41;;;25.67;50.62
26719;BME280;14326;50.794;6.060;2022-07-29T10:52:22;99642.22;;;25.73;49.41
26719;BME280;14326;50.794;6.060;2022-07-29T10:54:54;99638.19;;;25.62;50.36
26719;BME280;14326;50.794;6.060;2022-07-29T10:57:25;99638.28;;;25.61;50.44
26719;BME280;14326;50.794;6.060;2022-07-29T11:00:29;99650.31;;;25.74;49.30
26719;BME280;14326;50.794;6.060;2022-07-29T11:02:56;99636.44;;;25.61;49.72
26719;BME280;14326;50.794;6.060;2022-07-29T11:05:23;99643.09;;;25.73;50.37
26719;BME280;14326;50.794;6.060;2022-07-29T11:08:20;99648.88;;;25.84;49.90
26719;BME280;14326;50.794;6.060;2022-07-29T11:10:52;99650.84;;;25.98;49.17
26719;BME280;14326;50.794;6.060;2022-07-29T11:13:48;99644.19;;;26.21;48.85
26719;BME280;14326;50.794;6.060;2022-07-29T11:16:16;99648.47;;;26.42;47.91
26719;BME280;14326;50.794;6.060;2022-07-29T11:19:21;99645.63;;;26.61;48.21
26719;BME280;14326;50.794;6.060;2022-07-29T11:21:48;99657.34;;;26.78;47.37
26719;BME280;14326;50.794;6.060;2022-07-29T11:24:18;99651.34;;;26.72;47.20
26719;BME280;14326;50.794;6.060;2022-07-29T11:26:47;99649.28;;;26.93;46.91
26719;BME280;14326;50.794;6.060;2022-07-29T11:29:32;99642.34;;;27.03;45.85
26719;BME280;14326;50.794;6.060;2022-07-29T11:32:09;99648.28;;;26.62;46.95
26719;BME280;14326;50.794;6.060;2022-07-29T11:34:37;99653.03;;;26.26;47.46
26719;BME280;14326;50.794;6.060;2022-07-29T11:37:19;99650.25;;;26.43;47.77
26719;BME280;14326;50.794;6.060;2022-07-29T11:42:44;99657.66;;;26.89;46.21
26719;BME280;14326;50.794;6.060;2022-07-29T11:45:14;99660.81;;;27.13;44.87
26719;BME280;14326;50.794;6.060;2022-07-29T11:47:42;99662.56;;;27.30;43.76
26719;BME280;14326;50.794;6.060;2022-07-29T11:50:15;99669.84;;;27.45;44.15
26719;BME280;14326;50.794;6.060;2022-07-29T11:52:44;99660.03;;;27.27;43.30
26719;BME280;14326;50.794;6.060;2022-07-29T11:55:13;99651.34;;;27.35;43.65
26719;BME280;14326;50.794;6.060;2022-07-29T11:57:48;99655.06;;;27.49;43.55
26719;BME280;14326;50.794;6.060;2022-07-29T12:00:27;99649.19;;;27.71;43.41
26719;BME280;14326;50.794;6.060;2022-07-29T12:02:56;99644.75;;;27.84;43.66
26719;BME280;14326;50.794;6.060;2022-07-29T12:05:32;99646.69;;;27.52;43.86
26719;BME280;14326;50.794;6.060;2022-07-29T12:08:05;99644.38;;;27.60;44.43
26719;BME280;14326;50.794;6.060;2022-07-29T12:10:32;99637.75;;;27.64;43.89
26719;BME280;14326;50.794;6.060;2022-07-29T12:13:00;99636.78;;;27.65;43.88
26719;BME280;14326;50.794;6.060;2022-07-29T12:15:27;99640.53;;;27.79;43.40
26719;BME280;14326;50.794;6.060;2022-07-29T12:17:53;99630.38;;;27.81;43.55
26719;BME280;14326;50.794;6.060;2022-07-29T12:20:25;99632.72;;;27.73;43.72
26719;BME280;14326;50.794;6.060;2022-07-29T12:22:52;99641.47;;;27.63;43.05
26719;BME280;14326;50.794;6.060;2022-07-29T12:25:20;99643.00;;;27.53;41.95
26719;BME280;14326;50.794;6.060;2022-07-29T12:27:58;99643.34;;;27.16;41.88
26719;BME280;14326;50.794;6.060;2022-07-29T12:30:36;99641.47;;;26.54;43.17
26719;BME280;14326;50.794;6.060;2022-07-29T12:33:11;99645.44;;;26.64;43.16
26719;BME280;14326;50.794;6.060;2022-07-29T12:35:38;99646.97;;;26.36;43.63
26719;BME280;14326;50.794;6.060;2022-07-29T12:38:05;99641.38;;;26.05;45.41
26719;BME280;14326;50.794;6.060;2022-07-29T12:40:32;99643.72;;;26.45;44.78
26719;BME280;14326;50.794;6.060;2022-07-29T12:43:07;99630.66;;;26.83;44.89
26719;BME280;14326;50.794;6.060;2022-07-29T12:45:36;99626.56;;;27.08;44.30
26719;BME280;14326;50.794;6.060;2022-07-29T12:48:03;99623.88;;;27.22;43.65
26719;BME280;14326;50.794;6.060;2022-07-29T12:50:29;99630.81;;;27.27;43.25
26719;BME280;14326;50.794;6.060;2022-07-29T12:53:08;99626.59;;;27.38;43.09
26719;BME280;14326;50.794;6.060;2022-07-29T12:55:39;99629.34;;;27.38;43.67
26719;BME280;14326;50.794;6.060;2022-07-29T12:58:06;99635.16;;;27.32;44.58
26719;BME280;14326;50.794;6.060;2022-07-29T13:00:33;99631.28;;;27.36;44.49
26719;BME280;14326;50.794;6.060;2022-07-29T13:03:01;99634.81;;;27.22;43.29
26719;BME280;14326;50.794;6.060;2022-07-29T13:05:39;99630.16;;;27.08;43.97
26719;BME280;14326;50.794;6.060;2022-07-29T13:08:11;99641.66;;;26.82;43.83
26719;BME280;14326;50.794;6.060;2022-07-29T13:10:37;99649.69;;;26.85;43.01
26719;BME280;14326;50.794;6.060;2022-07-29T13:13:05;99643.25;;;26.70;43.72
26719;BME280;14326;50.794;6.060;2022-07-29T13:15:33;99645.00;;;26.71;43.95